sensor_id;sensor_type;location;lat;lon;timestamp;temperature;humidity
67750;DHT22;54550;48.838;8.828;2022-08-06T00:02:21;18.40;97.00
67750;DHT22;54550;48.838;8.828;2022-08-06T00:04:49;18.40;97.10
67750;DHT22;54550;48.838;8.828;2022-08-06T00:07:15;18.40;97.20
67750;DHT22;54550;48.838;8.828;2022-08-06T00:09:41;18.30;97.30
67750;DHT22;54550;48.838;8.828;2022-08-06T00:12:07;18.30;97.30
67750;DHT22;54550;48.838;8.828;2022-08-06T00:14:33;18.30;97.50
67750;DHT22;54550;48.838;8.828;2022-08-06T00:16:59;18.30;97.40
67750;DHT22;54550;48.838;8.828;2022-08-06T00:19:25;18.30;97.40
67750;DHT22;54550;48.838;8.828;2022-08-06T00:21:52;18.20;97.30
67750;DHT22;54550;48.838;8.828;2022-08-06T00:24:18;18.20;97.40
67750;DHT22;54550;48.838;8.828;2022-08-06T00:26:44;18.20;97.30
67750;DHT22;54550;48.838;8.828;2022-08-06T00:29:12;18.20;97.40
67750;DHT22;54550;48.838;8.828;2022-08-06T00:31:38;18.20;97.50
67750;DHT22;54550;48.838;8.828;2022-08-06T00:34:04;18.20;97.50
67750;DHT22;54550;48.838;8.828;2022-08-06T00:36:31;18.20;97.40
67750;DHT22;54550;48.838;8.828;2022-08-06T00:39:00;18.20;97.30
67750;DHT22;54550;48.838;8.828;2022-08-06T00:41:28;18.20;97.30
67750;DHT22;54550;48.838;8.828;2022-08-06T00:43:54;18.10;97.20
67750;DHT22;54550;48.838;8.828;2022-08-06T00:46:22;18.10;97.30
67750;DHT22;54550;48.838;8.828;2022-08-06T00:48:48;18.10;97.10
67750;DHT22;54550;48.838;8.828;2022-08-06T00:51:14;18.00;97.00
67750;DHT22;54550;48.838;8.828;2022-08-06T00:53:40;18.10;96.90
67750;DHT22;54550;48.838;8.828;2022-08-06T00:56:06;18.00;96.80
67750;DHT22;54550;48.838;8.828;2022-08-06T00:58:32;18.00;96.70
67750;DHT22;54550;48.838;8.828;2022-08-06T01:00:58;18.00;96.70
67750;DHT22;54550;48.838;8.828;2022-08-06T01:03:24;18.10;96.80
67750;DHT22;54550;48.838;8.828;2022-08-06T01:05:49;18.00;96.70
67750;DHT22;54550;48.838;8.828;2022-08-06T01:08:15;18.00;96.90
67750;DHT22;54550;48.838;8.828;2022-08-06T01:10:41;18.00;97.00
67750;DHT22;54550;48.838;8.828;2022-08-06T01:13:08;18.00;97.20
67750;DHT22;54550;48.838;8.828;2022-08-06T01:15:34;18.00;97.30
67750;DHT22;54550;48.838;8.828;2022-08-06T01:20:50;17.90;97.70
67750;DHT22;54550;48.838;8.828;2022-08-06T01:23:34;17.90;97.90
67750;DHT22;54550;48.838;8.828;2022-08-06T01:32:03;17.70;98.30
67750;DHT22;54550;48.838;8.828;2022-08-06T01:34:53;17.70;98.60
67750;DHT22;54550;48.838;8.828;2022-08-06T01:37:23;17.60;98.70
67750;DHT22;54550;48.838;8.828;2022-08-06T01:39:55;17.60;98.70
67750;DHT22;54550;48.838;8.828;2022-08-06T01:42:23;17.60;98.90
67750;DHT22;54550;48.838;8.828;2022-08-06T01:44:52;17.60;98.90
67750;DHT22;54550;48.838;8.828;2022-08-06T01:47:20;17.60;98.80
67750;DHT22;54550;48.838;8.828;2022-08-06T01:49:51;17.60;99.00
67750;DHT22;54550;48.838;8.828;2022-08-06T01:52:18;17.60;99.10
67750;DHT22;54550;48.838;8.828;2022-08-06T01:54:47;17.50;99.20
67750;DHT22;54550;48.838;8.828;2022-08-06T01:57:18;17.40;99.20
67750;DHT22;54550;48.838;8.828;2022-08-06T01:59:47;17.40;99.40
67750;DHT22;54550;48.838;8.828;2022-08-06T02:02:18;17.40;99.50
67750;DHT22;54550;48.838;8.828;2022-08-06T02:04:46;17.30;99.60
67750;DHT22;54550;48.838;8.828;2022-08-06T02:07:14;17.30;99.70
67750;DHT22;54550;48.838;8.828;2022-08-06T02:09:43;17.20;99.70
67750;DHT22;54550;48.838;8.828;2022-08-06T02:12:14;17.20;99.90
67750;DHT22;54550;48.838;8.828;2022-08-06T02:15:06;17.20;99.90
67750;DHT22;54550;48.838;8.828;2022-08-06T02:17:46;17.20;99.90
67750;DHT22;54550;48.838;8.828;2022-08-06T02:20:14;17.10;99.90
67750;DHT22;54550;48.838;8.828;2022-08-06T02:22:44;17.10;99.90
67750;DHT22;54550;48.838;8.828;2022-08-06T02:25:13;17.00;99.90
67750;DHT22;54550;48.838;8.828;2022-08-06T02:27:44;17.00;99.90
67750;DHT22;54550;48.838;8.828;2022-08-06T02:30:12;17.10;99.90
67750;DHT22;54550;48.838;8.828;2022-08-06T02:32:38;17.00;99.90
67750;DHT22;54550;48.838;8.828;2022-08-06T02:35:05;17.00;99.90
67750;DHT22;54550;48.838;8.828;2022-08-06T02:37:35;16.90;99.90
67750;DHT22;54550;48.838;8.828;2022-08-06T02:40:19;16.90;99.90
67750;DHT22;54550;48.838;8.828;2022-08-06T02:42:58;16.80;99.90
67750;DHT22;54550;48.838;8.828;2022-08-06T02:45:36;16.80;99.90
67750;DHT22;54550;48.838;8.828;2022-08-06T02:48:21;16.80;99.90
67750;DHT22;54550;48.838;8.828;2022-08-06T02:50:49;16.80;99.90
67750;DHT22;54550;48.838;8.828;2022-08-06T02:53:18;16.70;99.90
67750;DHT22;54550;48.838;8.828;2022-08-06T02:55:47;16.70;99.90
67750;DHT22;54550;48.838;8.828;2022-08-06T02:58:19;16.70;99.90
67750;DHT22;54550;48.838;8.828;2022-08-06T03:00:47;16.60;99.90
67750;DHT22;54550;48.838;8.828;2022-08-06T03:03:15;16.60;99.90
67750;DHT22;54550;48.838;8.828;2022-08-06T03:05:45;16.60;99.90
67750;DHT22;54550;48.838;8.828;2022-08-06T03:08:14;16.60;99.90
67750;DHT22;54550;48.838;8.828;2022-08-06T03:10:42;16.70;99.90
67750;DHT22;54550;48.838;8.828;2022-08-06T03:13:09;16.70;99.90
67750;DHT22;54550;48.838;8.828;2022-08-06T03:15:35;16.70;99.90
67750;DHT22;54550;48.838;8.828;2022-08-06T03:18:03;16.70;99.90
67750;DHT22;54550;48.838;8.828;2022-08-06T03:20:31;16.70;99.90
67750;DHT22;54550;48.838;8.828;2022-08-06T03:22:59;16.70;99.90
67750;DHT22;54550;48.838;8.828;2022-08-06T03:25:28;16.70;99.90
67750;DHT22;54550;48.838;8.828;2022-08-06T03:27:55;16.50;99.90
67750;DHT22;54550;48.838;8.828;2022-08-06T03:30:22;16.50;99.90
67750;DHT22;54550;48.838;8.828;2022-08-06T03:32:49;16.40;99.90
67750;DHT22;54550;48.838;8.828;2022-08-06T03:35:15;16.40;99.90
67750;DHT22;54550;48.838;8.828;2022-08-06T03:37:42;16.30;99.90
67750;DHT22;54550;48.838;8.828;2022-08-06T03:40:09;16.30;99.90
67750;DHT22;54550;48.838;8.828;2022-08-06T03:42:35;16.30;99.90
67750;DHT22;54550;48.838;8.828;2022-08-06T03:45:01;16.40;99.90
67750;DHT22;54550;48.838;8.828;2022-08-06T03:47:31;16.40;99.90
67750;DHT22;54550;48.838;8.828;2022-08-06T03:50:11;16.30;99.90
67750;DHT22;54550;48.838;8.828;2022-08-06T03:52:39;16.30;99.90
67750;DHT22;54550;48.838;8.828;2022-08-06T03:55:08;16.30;99.90
67750;DHT22;54550;48.838;8.828;2022-08-06T03:57:46;16.30;99.90
67750;DHT22;54550;48.838;8.828;2022-08-06T04:00:16;16.30;99.90
67750;DHT22;54550;48.838;8.828;2022-08-06T04:02:46;16.30;99.90
67750;DHT22;54550;48.838;8.828;2022-08-06T04:05:20;16.30;99.90
67750;DHT22;54550;48.838;8.828;2022-08-06T04:07:48;16.20;99.90
67750;DHT22;54550;48.838;8.828;2022-08-06T04:10:15;16.20;99.90
67750;DHT22;54550;48.838;8.828;2022-08-06T04:12:43;16.20;99.90
67750;DHT22;54550;48.838;8.828;2022-08-06T04:15:11;16.20;99.90
67750;DHT22;54550;48.838;8.828;2022-08-06T04:17:38;16.30;99.90
67750;DHT22;54550;48.838;8.828;2022-08-06T04:20:06;16.20;99.90
67750;DHT22;54550;48.838;8.828;2022-08-06T04:22:32;16.10;99.90
67750;DHT22;54550;48.838;8.828;2022-08-06T04:24:58;16.10;99.90
67750;DHT22;54550;48.838;8.828;2022-08-06T04:27:24;16.10;99.90
67750;DHT22;54550;48.838;8.828;2022-08-06T04:29:52;16.10;99.90
67750;DHT22;54550;48.838;8.828;2022-08-06T04:32:20;16.00;99.90
67750;DHT22;54550;48.838;8.828;2022-08-06T04:34:48;16.00;99.90
67750;DHT22;54550;48.838;8.828;2022-08-06T04:37:15;16.00;99.90
67750;DHT22;54550;48.838;8.828;2022-08-06T04:39:41;15.90;99.90
67750;DHT22;54550;48.838;8.828;2022-08-06T04:42:07;15.90;99.90
67750;DHT22;54550;48.838;8.828;2022-08-06T04:44:33;15.90;99.90
67750;DHT22;54550;48.838;8.828;2022-08-06T04:47:00;15.80;99.90
67750;DHT22;54550;48.838;8.828;2022-08-06T04:49:26;15.90;99.90
67750;DHT22;54550;48.838;8.828;2022-08-06T04:51:52;15.90;99.90
67750;DHT22;54550;48.838;8.828;2022-08-06T04:54:17;15.90;99.90
67750;DHT22;54550;48.838;8.828;2022-08-06T04:56:43;16.00;99.90
67750;DHT22;54550;48.838;8.828;2022-08-06T04:59:10;16.00;99.90
67750;DHT22;54550;48.838;8.828;2022-08-06T05:01:36;16.10;99.90
67750;DHT22;54550;48.838;8.828;2022-08-06T05:04:03;16.10;99.90
67750;DHT22;54550;48.838;8.828;2022-08-06T05:07:00;16.10;99.90
67750;DHT22;54550;48.838;8.828;2022-08-06T05:09:27;16.10;99.90
67750;DHT22;54550;48.838;8.828;2022-08-06T05:12:05;16.00;99.90
67750;DHT22;54550;48.838;8.828;2022-08-06T05:17:09;16.20;99.90
67750;DHT22;54550;48.838;8.828;2022-08-06T05:19:45;16.40;99.90
67750;DHT22;54550;48.838;8.828;2022-08-06T05:22:13;16.40;99.90
67750;DHT22;54550;48.838;8.828;2022-08-06T05:24:40;16.50;99.90
67750;DHT22;54550;48.838;8.828;2022-08-06T05:27:06;16.70;99.90
67750;DHT22;54550;48.838;8.828;2022-08-06T05:29:34;17.00;99.90
67750;DHT22;54550;48.838;8.828;2022-08-06T05:32:00;17.40;99.90
67750;DHT22;54550;48.838;8.828;2022-08-06T05:34:27;18.20;99.90
67750;DHT22;54550;48.838;8.828;2022-08-06T05:36:52;18.40;99.90
67750;DHT22;54550;48.838;8.828;2022-08-06T05:39:18;18.60;99.90
67750;DHT22;54550;48.838;8.828;2022-08-06T05:41:45;19.10;99.50
67750;DHT22;54550;48.838;8.828;2022-08-06T05:44:11;18.50;99.80
67750;DHT22;54550;48.838;8.828;2022-08-06T05:46:50;18.30;99.90
67750;DHT22;54550;48.838;8.828;2022-08-06T05:49:39;18.20;99.90
67750;DHT22;54550;48.838;8.828;2022-08-06T05:54:56;18.00;99.90
67750;DHT22;54550;48.838;8.828;2022-08-06T05:57:55;18.20;99.90
67750;DHT22;54550;48.838;8.828;2022-08-06T06:00:20;18.20;99.90
67750;DHT22;54550;48.838;8.828;2022-08-06T06:02:49;18.50;99.90
67750;DHT22;54550;48.838;8.828;2022-08-06T06:05:15;18.50;99.90
67750;DHT22;54550;48.838;8.828;2022-08-06T06:07:42;18.70;99.90
67750;DHT22;54550;48.838;8.828;2022-08-06T06:10:08;18.70;99.90
67750;DHT22;54550;48.838;8.828;2022-08-06T06:12:35;18.60;99.90
67750;DHT22;54550;48.838;8.828;2022-08-06T06:15:03;18.10;99.90
67750;DHT22;54550;48.838;8.828;2022-08-06T06:17:46;18.00;99.90
67750;DHT22;54550;48.838;8.828;2022-08-06T06:20:36;17.80;99.90
67750;DHT22;54550;48.838;8.828;2022-08-06T06:23:10;18.30;99.90
67750;DHT22;54550;48.838;8.828;2022-08-06T06:28:35;18.10;99.90
67750;DHT22;54550;48.838;8.828;2022-08-06T06:33:49;18.60;99.90
67750;DHT22;54550;48.838;8.828;2022-08-06T06:36:25;18.50;99.70
67750;DHT22;54550;48.838;8.828;2022-08-06T06:39:16;19.10;99.10
67750;DHT22;54550;48.838;8.828;2022-08-06T06:41:51;19.60;97.70
67750;DHT22;54550;48.838;8.828;2022-08-06T06:44:23;19.90;96.40
67750;DHT22;54550;48.838;8.828;2022-08-06T06:46:56;19.60;96.80
67750;DHT22;54550;48.838;8.828;2022-08-06T06:49:42;19.50;97.40
67750;DHT22;54550;48.838;8.828;2022-08-06T06:52:31;19.70;96.50
67750;DHT22;54550;48.838;8.828;2022-08-06T06:55:05;20.40;95.30
67750;DHT22;54550;48.838;8.828;2022-08-06T06:57:35;19.70;95.80
67750;DHT22;54550;48.838;8.828;2022-08-06T07:00:04;19.60;96.30
67750;DHT22;54550;48.838;8.828;2022-08-06T07:02:33;19.90;95.60
67750;DHT22;54550;48.838;8.828;2022-08-06T07:05:02;19.90;95.70
67750;DHT22;54550;48.838;8.828;2022-08-06T07:07:34;20.40;94.90
67750;DHT22;54550;48.838;8.828;2022-08-06T07:10:02;20.90;93.60
67750;DHT22;54550;48.838;8.828;2022-08-06T07:12:30;21.10;93.00
67750;DHT22;54550;48.838;8.828;2022-08-06T07:14:59;20.70;93.70
67750;DHT22;54550;48.838;8.828;2022-08-06T07:17:25;19.90;94.00
67750;DHT22;54550;48.838;8.828;2022-08-06T07:19:54;20.60;93.20
67750;DHT22;54550;48.838;8.828;2022-08-06T07:22:23;21.10;92.50
67750;DHT22;54550;48.838;8.828;2022-08-06T07:25:00;21.30;92.20
67750;DHT22;54550;48.838;8.828;2022-08-06T07:27:28;21.50;91.50
67750;DHT22;54550;48.838;8.828;2022-08-06T07:29:55;21.70;90.80
67750;DHT22;54550;48.838;8.828;2022-08-06T07:32:22;21.70;90.50
67750;DHT22;54550;48.838;8.828;2022-08-06T07:34:48;21.50;90.30
67750;DHT22;54550;48.838;8.828;2022-08-06T07:37:17;21.20;90.40
67750;DHT22;54550;48.838;8.828;2022-08-06T07:39:43;20.80;90.50
67750;DHT22;54550;48.838;8.828;2022-08-06T07:42:12;20.90;90.40
67750;DHT22;54550;48.838;8.828;2022-08-06T07:44:42;21.50;90.00
67750;DHT22;54550;48.838;8.828;2022-08-06T07:47:08;21.60;88.00
67750;DHT22;54550;48.838;8.828;2022-08-06T07:49:41;22.50;86.40
67750;DHT22;54550;48.838;8.828;2022-08-06T07:52:09;23.00;84.70
67750;DHT22;54550;48.838;8.828;2022-08-06T07:54:37;22.10;84.60
67750;DHT22;54550;48.838;8.828;2022-08-06T07:57:02;21.20;86.80
67750;DHT22;54550;48.838;8.828;2022-08-06T07:59:28;21.30;87.50
67750;DHT22;54550;48.838;8.828;2022-08-06T08:01:55;21.20;88.10
67750;DHT22;54550;48.838;8.828;2022-08-06T08:04:21;21.90;85.10
67750;DHT22;54550;48.838;8.828;2022-08-06T08:07:05;22.10;84.50
67750;DHT22;54550;48.838;8.828;2022-08-06T08:09:32;21.60;85.90
67750;DHT22;54550;48.838;8.828;2022-08-06T08:11:59;21.70;84.90
67750;DHT22;54550;48.838;8.828;2022-08-06T08:14:25;21.90;85.10
67750;DHT22;54550;48.838;8.828;2022-08-06T08:16:52;21.70;84.60
67750;DHT22;54550;48.838;8.828;2022-08-06T08:19:32;21.50;85.80
67750;DHT22;54550;48.838;8.828;2022-08-06T08:24:27;21.70;83.20
67750;DHT22;54550;48.838;8.828;2022-08-06T08:26:54;22.10;82.50
67750;DHT22;54550;48.838;8.828;2022-08-06T08:29:20;21.30;84.90
67750;DHT22;54550;48.838;8.828;2022-08-06T08:31:46;21.60;83.60
67750;DHT22;54550;48.838;8.828;2022-08-06T08:34:12;21.50;84.70
67750;DHT22;54550;48.838;8.828;2022-08-06T08:36:38;22.70;80.40
67750;DHT22;54550;48.838;8.828;2022-08-06T08:39:04;24.00;78.60
67750;DHT22;54550;48.838;8.828;2022-08-06T08:41:43;23.50;77.10
67750;DHT22;54550;48.838;8.828;2022-08-06T08:44:09;22.60;79.30
67750;DHT22;54550;48.838;8.828;2022-08-06T08:46:39;22.90;78.20
67750;DHT22;54550;48.838;8.828;2022-08-06T08:49:07;22.60;78.50
67750;DHT22;54550;48.838;8.828;2022-08-06T08:51:37;23.00;76.30
67750;DHT22;54550;48.838;8.828;2022-08-06T08:54:07;23.00;76.00
67750;DHT22;54550;48.838;8.828;2022-08-06T08:56:33;21.90;77.50
67750;DHT22;54550;48.838;8.828;2022-08-06T08:59:01;22.50;77.70
67750;DHT22;54550;48.838;8.828;2022-08-06T09:01:27;22.70;75.10
67750;DHT22;54550;48.838;8.828;2022-08-06T09:03:53;22.80;75.60
67750;DHT22;54550;48.838;8.828;2022-08-06T09:06:21;22.80;76.50
67750;DHT22;54550;48.838;8.828;2022-08-06T09:08:47;23.10;73.90
67750;DHT22;54550;48.838;8.828;2022-08-06T09:11:14;23.00;73.70
67750;DHT22;54550;48.838;8.828;2022-08-06T09:13:40;22.90;75.90
67750;DHT22;54550;48.838;8.828;2022-08-06T09:16:06;23.20;75.40
67750;DHT22;54550;48.838;8.828;2022-08-06T09:18:31;23.80;73.50
67750;DHT22;54550;48.838;8.828;2022-08-06T09:20:59;25.30;71.20
67750;DHT22;54550;48.838;8.828;2022-08-06T09:23:25;24.50;71.50
67750;DHT22;54550;48.838;8.828;2022-08-06T09:25:53;24.40;71.90
67750;DHT22;54550;48.838;8.828;2022-08-06T09:28:39;24.00;72.40
67750;DHT22;54550;48.838;8.828;2022-08-06T09:31:12;22.50;73.30
67750;DHT22;54550;48.838;8.828;2022-08-06T09:33:40;22.00;73.40
67750;DHT22;54550;48.838;8.828;2022-08-06T09:36:09;22.00;73.80
67750;DHT22;54550;48.838;8.828;2022-08-06T09:38:52;23.20;71.20
67750;DHT22;54550;48.838;8.828;2022-08-06T09:41:20;23.10;70.10
67750;DHT22;54550;48.838;8.828;2022-08-06T09:43:48;23.00;70.60
67750;DHT22;54550;48.838;8.828;2022-08-06T09:46:15;24.20;69.10
67750;DHT22;54550;48.838;8.828;2022-08-06T09:48:56;23.90;69.80
67750;DHT22;54550;48.838;8.828;2022-08-06T09:51:22;24.40;69.30
67750;DHT22;54550;48.838;8.828;2022-08-06T09:53:53;24.00;67.90
67750;DHT22;54550;48.838;8.828;2022-08-06T09:56:18;24.10;67.40
67750;DHT22;54550;48.838;8.828;2022-08-06T09:58:44;24.50;67.90
67750;DHT22;54550;48.838;8.828;2022-08-06T10:01:18;24.60;66.20
67750;DHT22;54550;48.838;8.828;2022-08-06T10:03:45;24.80;66.40
67750;DHT22;54550;48.838;8.828;2022-08-06T10:06:13;25.10;65.10
67750;DHT22;54550;48.838;8.828;2022-08-06T10:08:39;24.90;65.30
67750;DHT22;54550;48.838;8.828;2022-08-06T10:11:06;24.70;65.40
67750;DHT22;54550;48.838;8.828;2022-08-06T10:13:32;23.90;66.40
67750;DHT22;54550;48.838;8.828;2022-08-06T10:16:00;23.90;65.80
67750;DHT22;54550;48.838;8.828;2022-08-06T10:18:39;24.60;66.60
67750;DHT22;54550;48.838;8.828;2022-08-06T10:21:08;25.10;64.70
67750;DHT22;54550;48.838;8.828;2022-08-06T10:23:36;25.30;64.60
67750;DHT22;54550;48.838;8.828;2022-08-06T10:26:04;25.90;62.40
67750;DHT22;54550;48.838;8.828;2022-08-06T10:28:32;26.50;60.70
67750;DHT22;54550;48.838;8.828;2022-08-06T10:31:05;25.50;62.30
67750;DHT22;54550;48.838;8.828;2022-08-06T10:33:55;25.60;62.50
67750;DHT22;54550;48.838;8.828;2022-08-06T10:36:45;26.40;60.20
67750;DHT22;54550;48.838;8.828;2022-08-06T10:39:13;26.20;60.60
67750;DHT22;54550;48.838;8.828;2022-08-06T10:41:39;27.20;59.40
67750;DHT22;54550;48.838;8.828;2022-08-06T10:44:06;26.70;58.70
67750;DHT22;54550;48.838;8.828;2022-08-06T10:46:32;26.50;59.80
67750;DHT22;54550;48.838;8.828;2022-08-06T10:48:58;26.60;60.30
67750;DHT22;54550;48.838;8.828;2022-08-06T10:51:25;25.60;62.10
67750;DHT22;54550;48.838;8.828;2022-08-06T10:53:52;26.30;61.20
67750;DHT22;54550;48.838;8.828;2022-08-06T10:56:19;26.40;60.50
67750;DHT22;54550;48.838;8.828;2022-08-06T10:58:45;26.70;59.80
67750;DHT22;54550;48.838;8.828;2022-08-06T11:07:03;24.60;63.50
67750;DHT22;54550;48.838;8.828;2022-08-06T11:12:50;24.40;64.60
67750;DHT22;54550;48.838;8.828;2022-08-06T11:15:21;26.00;61.70
67750;DHT22;54550;48.838;8.828;2022-08-06T11:17:52;26.10;60.70
67750;DHT22;54550;48.838;8.828;2022-08-06T11:20:34;26.60;59.60
67750;DHT22;54550;48.838;8.828;2022-08-06T11:23:04;27.20;58.50
67750;DHT22;54550;48.838;8.828;2022-08-06T11:25:51;27.00;59.10
67750;DHT22;54550;48.838;8.828;2022-08-06T11:28:18;26.50;60.70
67750;DHT22;54550;48.838;8.828;2022-08-06T11:30:52;27.40;58.80
67750;DHT22;54550;48.838;8.828;2022-08-06T11:35:59;25.80;60.20
67750;DHT22;54550;48.838;8.828;2022-08-06T11:38:55;25.90;61.30
67750;DHT22;54550;48.838;8.828;2022-08-06T11:44:03;25.60;60.50
67750;DHT22;54550;48.838;8.828;2022-08-06T11:46:35;26.50;59.40
67750;DHT22;54550;48.838;8.828;2022-08-06T12:02:12;26.10;59.70
67750;DHT22;54550;48.838;8.828;2022-08-06T12:07:23;24.60;61.50
67750;DHT22;54550;48.838;8.828;2022-08-06T12:10:10;25.90;61.10
67750;DHT22;54550;48.838;8.828;2022-08-06T12:20:37;26.70;58.40
67750;DHT22;54550;48.838;8.828;2022-08-06T12:23:07;25.80;59.60
67750;DHT22;54550;48.838;8.828;2022-08-06T12:25:39;26.60;58.50
67750;DHT22;54550;48.838;8.828;2022-08-06T12:28:10;27.30;58.40
67750;DHT22;54550;48.838;8.828;2022-08-06T12:30:46;26.70;57.70
67750;DHT22;54550;48.838;8.828;2022-08-06T12:33:12;26.30;58.80
67750;DHT22;54550;48.838;8.828;2022-08-06T12:35:55;27.20;58.00
67750;DHT22;54550;48.838;8.828;2022-08-06T12:38:23;26.90;57.30
67750;DHT22;54550;48.838;8.828;2022-08-06T12:43:27;25.60;59.70
67750;DHT22;54550;48.838;8.828;2022-08-06T12:45:56;25.40;60.60
67750;DHT22;54550;48.838;8.828;2022-08-06T12:48:22;26.00;59.50
67750;DHT22;54550;48.838;8.828;2022-08-06T12:50:48;26.40;58.40
67750;DHT22;54550;48.838;8.828;2022-08-06T12:53:17;26.60;58.30
67750;DHT22;54550;48.838;8.828;2022-08-06T12:55:45;26.90;58.10
67750;DHT22;54550;48.838;8.828;2022-08-06T12:58:14;26.50;58.00
67750;DHT22;54550;48.838;8.828;2022-08-06T13:00:42;26.20;58.40
67750;DHT22;54550;48.838;8.828;2022-08-06T13:03:08;26.70;58.50
67750;DHT22;54550;48.838;8.828;2022-08-06T13:05:35;26.90;58.40
67750;DHT22;54550;48.838;8.828;2022-08-06T13:08:01;27.50;57.50
67750;DHT22;54550;48.838;8.828;2022-08-06T13:10:27;27.60;56.40
67750;DHT22;54550;48.838;8.828;2022-08-06T13:13:02;27.60;56.40
67750;DHT22;54550;48.838;8.828;2022-08-06T13:15:29;26.60;57.90
67750;DHT22;54550;48.838;8.828;2022-08-06T13:18:20;26.40;58.30
67750;DHT22;54550;48.838;8.828;2022-08-06T13:20:48;25.70;59.20
67750;DHT22;54550;48.838;8.828;2022-08-06T13:23:29;25.40;59.80
67750;DHT22;54550;48.838;8.828;2022-08-06T13:25:55;24.90;60.40
67750;DHT22;54550;48.838;8.828;2022-08-06T13:28:22;25.40;59.80
67750;DHT22;54550;48.838;8.828;2022-08-06T13:30:49;25.50;59.00
67750;DHT22;54550;48.838;8.828;2022-08-06T13:33:22;25.70;60.70
67750;DHT22;54550;48.838;8.828;2022-08-06T13:35:52;26.70;58.20
67750;DHT22;54550;48.838;8.828;2022-08-06T13:38:29;26.50;58.30
67750;DHT22;54550;48.838;8.828;2022-08-06T13:40:55;26.70;58.50
67750;DHT22;54550;48.838;8.828;2022-08-06T13:43:21;27.80;56.50
67750;DHT22;54550;48.838;8.828;2022-08-06T13:46:06;27.20;57.10
67750;DHT22;54550;48.838;8.828;2022-08-06T13:48:32;26.70;57.20
67750;DHT22;54550;48.838;8.828;2022-08-06T13:50:57;26.20;58.10
67750;DHT22;54550;48.838;8.828;2022-08-06T13:53:23;24.90;59.40
67750;DHT22;54550;48.838;8.828;2022-08-06T13:55:48;25.10;59.90
67750;DHT22;54550;48.838;8.828;2022-08-06T13:58:14;25.40;59.30
67750;DHT22;54550;48.838;8.828;2022-08-06T14:00:39;25.60;58.90
67750;DHT22;54550;48.838;8.828;2022-08-06T14:03:06;25.30;59.00
67750;DHT22;54550;48.838;8.828;2022-08-06T14:05:32;25.30;59.20
67750;DHT22;54550;48.838;8.828;2022-08-06T14:07:58;25.40;59.20
67750;DHT22;54550;48.838;8.828;2022-08-06T14:10:23;25.50;60.00
67750;DHT22;54550;48.838;8.828;2022-08-06T14:12:49;24.90;59.90
67750;DHT22;54550;48.838;8.828;2022-08-06T14:15:33;23.80;61.30
67750;DHT22;54550;48.838;8.828;2022-08-06T14:17:59;23.80;61.90
67750;DHT22;54550;48.838;8.828;2022-08-06T14:20:25;23.80;62.00
67750;DHT22;54550;48.838;8.828;2022-08-06T14:22:54;24.10;61.40
67750;DHT22;54550;48.838;8.828;2022-08-06T14:25:20;24.10;61.80
67750;DHT22;54550;48.838;8.828;2022-08-06T14:27:46;23.90;61.60
67750;DHT22;54550;48.838;8.828;2022-08-06T14:30:12;23.70;61.70
67750;DHT22;54550;48.838;8.828;2022-08-06T14:32:38;23.80;62.00
67750;DHT22;54550;48.838;8.828;2022-08-06T14:35:04;23.60;61.70
67750;DHT22;54550;48.838;8.828;2022-08-06T14:37:29;23.50;61.50
67750;DHT22;54550;48.838;8.828;2022-08-06T14:39:55;23.80;62.00
67750;DHT22;54550;48.838;8.828;2022-08-06T14:42:21;24.00;61.10
67750;DHT22;54550;48.838;8.828;2022-08-06T14:45:05;24.10;60.70
67750;DHT22;54550;48.838;8.828;2022-08-06T14:47:32;24.10;60.90
67750;DHT22;54550;48.838;8.828;2022-08-06T14:49:58;24.00;60.80
67750;DHT22;54550;48.838;8.828;2022-08-06T14:52:24;23.60;61.20
67750;DHT22;54550;48.838;8.828;2022-08-06T14:54:49;23.60;61.70
67750;DHT22;54550;48.838;8.828;2022-08-06T14:57:15;23.90;63.40
67750;DHT22;54550;48.838;8.828;2022-08-06T14:59:41;24.20;61.30
67750;DHT22;54550;48.838;8.828;2022-08-06T15:02:06;24.10;60.90
67750;DHT22;54550;48.838;8.828;2022-08-06T15:04:33;24.00;60.90
67750;DHT22;54550;48.838;8.828;2022-08-06T15:06:58;23.90;60.90
67750;DHT22;54550;48.838;8.828;2022-08-06T15:09:24;24.10;60.70
67750;DHT22;54550;48.838;8.828;2022-08-06T15:11:50;24.30;60.30
67750;DHT22;54550;48.838;8.828;2022-08-06T15:14:15;23.90;60.80
67750;DHT22;54550;48.838;8.828;2022-08-06T15:16:41;24.00;60.80
67750;DHT22;54550;48.838;8.828;2022-08-06T15:19:06;24.20;60.90
67750;DHT22;54550;48.838;8.828;2022-08-06T15:21:32;24.50;60.10
67750;DHT22;54550;48.838;8.828;2022-08-06T15:23:58;24.50;59.50
67750;DHT22;54550;48.838;8.828;2022-08-06T15:26:25;24.30;59.50
67750;DHT22;54550;48.838;8.828;2022-08-06T15:28:51;24.00;60.10
67750;DHT22;54550;48.838;8.828;2022-08-06T15:31:17;24.20;60.40
67750;DHT22;54550;48.838;8.828;2022-08-06T15:33:43;24.10;59.80
67750;DHT22;54550;48.838;8.828;2022-08-06T15:36:09;24.10;59.90
67750;DHT22;54550;48.838;8.828;2022-08-06T15:38:34;23.90;59.90
67750;DHT22;54550;48.838;8.828;2022-08-06T15:41:00;24.00;59.90
67750;DHT22;54550;48.838;8.828;2022-08-06T15:43:26;24.00;59.50
67750;DHT22;54550;48.838;8.828;2022-08-06T15:45:53;23.90;59.10
67750;DHT22;54550;48.838;8.828;2022-08-06T15:48:19;23.60;59.40
67750;DHT22;54550;48.838;8.828;2022-08-06T15:50:46;23.90;59.00
67750;DHT22;54550;48.838;8.828;2022-08-06T15:53:13;23.90;58.90
67750;DHT22;54550;48.838;8.828;2022-08-06T15:55:39;23.90;58.80
67750;DHT22;54550;48.838;8.828;2022-08-06T15:58:05;23.80;59.30
67750;DHT22;54550;48.838;8.828;2022-08-06T16:00:32;23.80;59.40
67750;DHT22;54550;48.838;8.828;2022-08-06T16:02:58;23.80;59.10
67750;DHT22;54550;48.838;8.828;2022-08-06T16:05:23;23.80;59.00
67750;DHT22;54550;48.838;8.828;2022-08-06T16:07:49;23.60;58.70
67750;DHT22;54550;48.838;8.828;2022-08-06T16:10:15;23.70;59.60
67750;DHT22;54550;48.838;8.828;2022-08-06T16:12:40;23.70;58.50
67750;DHT22;54550;48.838;8.828;2022-08-06T16:15:06;23.70;58.70
67750;DHT22;54550;48.838;8.828;2022-08-06T16:17:33;23.80;58.40
67750;DHT22;54550;48.838;8.828;2022-08-06T16:19:59;23.60;58.30
67750;DHT22;54550;48.838;8.828;2022-08-06T16:22:24;23.60;58.40
67750;DHT22;54550;48.838;8.828;2022-08-06T16:24:50;23.70;58.70
67750;DHT22;54550;48.838;8.828;2022-08-06T16:27:16;23.80;58.40
67750;DHT22;54550;48.838;8.828;2022-08-06T16:29:43;23.80;58.40
67750;DHT22;54550;48.838;8.828;2022-08-06T16:32:09;23.70;58.00
67750;DHT22;54550;48.838;8.828;2022-08-06T16:34:35;23.70;57.70
67750;DHT22;54550;48.838;8.828;2022-08-06T16:37:01;23.50;57.90
67750;DHT22;54550;48.838;8.828;2022-08-06T16:39:28;23.50;58.30
67750;DHT22;54550;48.838;8.828;2022-08-06T16:41:54;23.50;58.30
67750;DHT22;54550;48.838;8.828;2022-08-06T16:44:19;23.50;58.30
67750;DHT22;54550;48.838;8.828;2022-08-06T16:46:45;23.40;58.20